sensor_id;sensor_type;location;lat;lon;timestamp;pressure;altitude;pressure_sealevel;temperature;humidity
53758;BME280;39674;59.860;30.672;2023-04-06T00:03:17;102430.94;;;0.63;100.00
53758;BME280;39674;59.860;30.672;2023-04-06T00:05:11;102540.50;;;1.32;100.00
53758;BME280;39674;59.860;30.672;2023-04-06T00:08:35;102487.94;;;1.01;100.00
53758;BME280;39674;59.860;30.672;2023-04-06T00:11:35;102434.47;;;0.67;100.00
53758;BME280;39674;59.860;30.672;2023-04-06T00:14:16;102535.25;;;1.29;100.00
53758;BME280;39674;59.860;30.672;2023-04-06T00:17:26;102487.03;;;0.99;100.00
53758;BME280;39674;59.860;30.672;2023-04-06T00:20:02;102483.47;;;0.94;100.00
53758;BME280;39674;59.860;30.672;2023-04-06T00:22:48;102470.38;;;0.88;100.00
53758;BME280;39674;59.860;30.672;2023-04-06T00:25:49;102428.31;;;0.63;100.00
53758;BME280;39674;59.860;30.672;2023-04-06T00:32:20;102465.13;;;0.85;100.00
53758;BME280;39674;59.860;30.672;2023-04-06T00:35:13;102437.94;;;0.67;100.00
53758;BME280;39674;59.860;30.672;2023-04-06T00:38:16;102508.91;;;1.10;100.00
53758;BME280;39674;59.860;30.672;2023-04-06T00:42:15;102443.13;;;0.67;100.00
53758;BME280;39674;59.860;30.672;2023-04-06T00:45:26;102564.88;;;1.37;100.00
53758;BME280;39674;59.860;30.672;2023-04-06T00:52:10;102433.63;;;0.69;100.00
53758;BME280;39674;59.860;30.672;2023-04-06T00:55:31;102441.44;;;0.69;100.00
53758;BME280;39674;59.860;30.672;2023-04-06T00:58:14;102498.41;;;1.04;100.00
53758;BME280;39674;59.860;30.672;2023-04-06T01:01:34;102434.38;;;0.62;100.00
53758;BME280;39674;59.860;30.672;2023-04-06T01:04:57;102557.06;;;1.37;100.00
53758;BME280;39674;59.860;30.672;2023-04-06T01:08:09;102449.25;;;0.69;100.00
53758;BME280;39674;59.860;30.672;2023-04-06T01:11:48;102524.53;;;1.10;100.00
53758;BME280;39674;59.860;30.672;2023-04-06T01:15:26;102526.38;;;1.18;100.00
53758;BME280;39674;59.860;30.672;2023-04-06T01:18:35;102504.38;;;1.00;100.00
53758;BME280;39674;59.860;30.672;2023-04-06T01:21:32;102424.59;;;0.48;100.00
53758;BME280;39674;59.860;30.672;2023-04-06T01:25:06;102510.53;;;1.05;100.00
53758;BME280;39674;59.860;30.672;2023-04-06T01:28:22;102461.28;;;0.64;100.00
53758;BME280;39674;59.860;30.672;2023-04-06T01:31:40;102433.34;;;0.54;100.00
53758;BME280;39674;59.860;30.672;2023-04-06T01:34:44;102516.50;;;0.98;100.00
53758;BME280;39674;59.860;30.672;2023-04-06T01:37:47;102461.19;;;0.58;100.00
53758;BME280;39674;59.860;30.672;2023-04-06T01:40:54;102525.19;;;0.99;100.00
53758;BME280;39674;59.860;30.672;2023-04-06T01:44:00;102456.81;;;0.57;100.00
53758;BME280;39674;59.860;30.672;2023-04-06T01:46:40;102503.22;;;0.83;100.00
53758;BME280;39674;59.860;30.672;2023-04-06T01:49:30;102449.75;;;0.48;100.00
53758;BME280;39674;59.860;30.672;2023-04-06T01:52:10;102515.41;;;0.85;100.00
53758;BME280;39674;59.860;30.672;2023-04-06T01:55:17;102475.97;;;0.60;100.00
53758;BME280;39674;59.860;30.672;2023-04-06T01:58:35;102472.56;;;0.64;100.00
53758;BME280;39674;59.860;30.672;2023-04-06T02:01:09;102544.31;;;1.01;100.00
53758;BME280;39674;59.860;30.672;2023-04-06T02:04:14;102547.84;;;1.04;100.00
53758;BME280;39674;59.860;30.672;2023-04-06T02:06:54;102461.84;;;0.47;100.00
53758;BME280;39674;59.860;30.672;2023-04-06T02:09:39;102529.44;;;0.93;100.00
53758;BME280;39674;59.860;30.672;2023-04-06T02:12:43;102592.41;;;1.23;100.00
53758;BME280;39674;59.860;30.672;2023-04-06T02:15:44;102564.41;;;1.09;100.00
53758;BME280;39674;59.860;30.672;2023-04-06T02:18:32;102496.06;;;0.69;100.00
53758;BME280;39674;59.860;30.672;2023-04-06T02:21:09;102535.41;;;0.89;100.00
53758;BME280;39674;59.860;30.672;2023-04-06T02:24:05;102535.41;;;0.89;100.00
53758;BME280;39674;59.860;30.672;2023-04-06T02:26:49;102508.22;;;0.70;100.00
53758;BME280;39674;59.860;30.672;2023-04-06T02:29:22;102468.78;;;0.47;100.00
53758;BME280;39674;59.860;30.672;2023-04-06T02:32:07;102514.38;;;0.75;100.00
53758;BME280;39674;59.860;30.672;2023-04-06T02:35:05;102523.00;;;0.74;100.00
53758;BME280;39674;59.860;30.672;2023-04-06T02:37:40;102555.38;;;0.89;100.00
53758;BME280;39674;59.860;30.672;2023-04-06T02:40:10;102595.78;;;1.17;100.00
53758;BME280;39674;59.860;30.672;2023-04-06T02:42:44;102495.66;;;0.49;100.00
53758;BME280;39674;59.860;30.672;2023-04-06T02:45:24;102605.28;;;1.15;100.00
53758;BME280;39674;59.860;30.672;2023-04-06T02:47:58;102554.44;;;0.85;100.00
53758;BME280;39674;59.860;30.672;2023-04-06T02:50:39;102549.09;;;0.77;100.00
53758;BME280;39674;59.860;30.672;2023-04-06T02:53:20;102469.41;;;0.35;100.00
53758;BME280;39674;59.860;30.672;2023-04-06T02:56:16;102469.44;;;0.37;100.00
53758;BME280;39674;59.860;30.672;2023-04-06T02:58:54;102473.78;;;0.36;100.00
53758;BME280;39674;59.860;30.672;2023-04-06T03:04:29;102559.63;;;0.84;100.00
53758;BME280;39674;59.860;30.672;2023-04-06T03:07:12;102475.41;;;0.31;100.00
53758;BME280;39674;59.860;30.672;2023-04-06T03:09:46;102551.69;;;0.77;100.00
53758;BME280;39674;59.860;30.672;2023-04-06T03:13:01;102536.72;;;0.66;100.00
53758;BME280;39674;59.860;30.672;2023-04-06T03:15:54;102487.63;;;0.37;100.00
53758;BME280;39674;59.860;30.672;2023-04-06T03:21:49;102481.44;;;0.30;100.00
53758;BME280;39674;59.860;30.672;2023-04-06T03:24:27;102564.63;;;0.74;100.00
53758;BME280;39674;59.860;30.672;2023-04-06T03:27:03;102609.31;;;0.99;100.00
53758;BME280;39674;59.860;30.672;2023-04-06T03:29:47;102498.84;;;0.34;100.00
53758;BME280;39674;59.860;30.672;2023-04-06T03:35:16;102490.09;;;0.29;100.00
53758;BME280;39674;59.860;30.672;2023-04-06T03:38:06;102547.97;;;0.63;100.00
53758;BME280;39674;59.860;30.672;2023-04-06T03:40:39;102594.28;;;0.83;100.00
53758;BME280;39674;59.860;30.672;2023-04-06T03:46:28;102568.75;;;0.63;100.00
53758;BME280;39674;59.860;30.672;2023-04-06T03:49:10;102640.53;;;0.99;100.00
53758;BME280;39674;59.860;30.672;2023-04-06T03:52:13;102517.75;;;0.27;100.00
53758;BME280;39674;59.860;30.672;2023-04-06T03:58:46;102537.06;;;0.38;100.00
53758;BME280;39674;59.860;30.672;2023-04-06T04:01:28;102596.66;;;0.70;100.00
53758;BME280;39674;59.860;30.672;2023-04-06T04:04:10;102586.16;;;0.67;100.00
53758;BME280;39674;59.860;30.672;2023-04-06T04:06:41;102510.56;;;0.13;100.00
53758;BME280;39674;59.860;30.672;2023-04-06T04:09:38;102566.88;;;0.56;100.00
53758;BME280;39674;59.860;30.672;2023-04-06T04:12:29;102566.69;;;0.46;100.00
53758;BME280;39674;59.860;30.672;2023-04-06T04:15:35;102513.34;;;0.21;100.00
53758;BME280;39674;59.860;30.672;2023-04-06T04:18:22;102503.63;;;0.12;100.00
53758;BME280;39674;59.860;30.672;2023-04-06T04:20:58;102523.69;;;0.20;100.00
53758;BME280;39674;59.860;30.672;2023-04-06T04:23:31;102566.69;;;0.46;100.00
53758;BME280;39674;59.860;30.672;2023-04-06T04:26:02;102643.00;;;0.90;100.00
53758;BME280;39674;59.860;30.672;2023-04-06T04:28:40;102605.16;;;0.63;100.00
53758;BME280;39674;59.860;30.672;2023-04-06T04:31:12;102591.19;;;0.58;100.00
53758;BME280;39674;59.860;30.672;2023-04-06T04:33:42;102604.97;;;0.54;100.00
53758;BME280;39674;59.860;30.672;2023-04-06T04:36:20;102542.75;;;0.20;100.00
53758;BME280;39674;59.860;30.672;2023-04-06T04:38:50;102625.13;;;0.64;100.00
53758;BME280;39674;59.860;30.672;2023-04-06T04:41:26;102607.66;;;0.58;100.00
53758;BME280;39674;59.860;30.672;2023-04-06T04:43:57;102557.66;;;0.29;100.00
53758;BME280;39674;59.860;30.672;2023-04-06T04:46:34;102520.91;;;0.10;100.00
53758;BME280;39674;59.860;30.672;2023-04-06T04:49:15;102615.56;;;0.63;100.00
53758;BME280;39674;59.860;30.672;2023-04-06T04:51:53;102578.72;;;0.41;100.00
53758;BME280;39674;59.860;30.672;2023-04-06T04:54:35;102608.53;;;0.59;100.00
53758;BME280;39674;59.860;30.672;2023-04-06T04:57:17;102531.28;;;0.10;100.00
53758;BME280;39674;59.860;30.672;2023-04-06T04:59:51;102610.28;;;0.58;100.00
53758;BME280;39674;59.860;30.672;2023-04-06T05:02:36;102529.50;;;0.06;100.00
53758;BME280;39674;59.860;30.672;2023-04-06T05:05:23;102655.78;;;0.80;100.00
53758;BME280;39674;59.860;30.672;2023-04-06T05:08:05;102535.56;;;0.07;100.00
53758;BME280;39674;59.860;30.672;2023-04-06T05:10:54;102579.44;;;0.34;100.00
53758;BME280;39674;59.860;30.672;2023-04-06T05:13:32;102554.72;;;0.12;100.00
53758;BME280;39674;59.860;30.672;2023-04-06T05:16:20;102562.59;;;0.17;100.00
53758;BME280;39674;59.860;30.672;2023-04-06T05:18:59;102546.94;;;0.13;100.00
53758;BME280;39674;59.860;30.672;2023-04-06T05:21:58;102554.72;;;0.12;100.00
53758;BME280;39674;59.860;30.672;2023-04-06T05:24:33;102600.34;;;0.40;100.00
53758;BME280;39674;59.860;30.672;2023-04-06T05:28:02;102625.75;;;0.54;100.00
53758;BME280;39674;59.860;30.672;2023-04-06T05:30:52;102639.81;;;0.62;100.00
53758;BME280;39674;59.860;30.672;2023-04-06T05:33:26;102548.50;;;0.05;100.00
53758;BME280;39674;59.860;30.672;2023-04-06T05:36:35;102635.41;;;0.58;100.00
53758;BME280;39674;59.860;30.672;2023-04-06T05:39:23;102567.00;;;0.19;100.00
53758;BME280;39674;59.860;30.672;2023-04-06T05:42:21;102555.59;;;0.12;100.00
53758;BME280;39674;59.860;30.672;2023-04-06T05:45:07;102569.56;;;0.18;100.00
53758;BME280;39674;59.860;30.672;2023-04-06T05:47:55;102682.00;;;0.90;100.00
53758;BME280;39674;59.860;30.672;2023-04-06T05:50:55;102582.72;;;0.25;100.00
53758;BME280;39674;59.860;30.672;2023-04-06T05:53:35;102631.88;;;0.56;100.00
53758;BME280;39674;59.860;30.672;2023-04-06T05:56:27;102573.94;;;0.20;100.00
53758;BME280;39674;59.860;30.672;2023-04-06T05:59:43;102592.38;;;0.31;100.00
53758;BME280;39674;59.860;30.672;2023-04-06T06:03:01;102675.06;;;0.89;100.00
53758;BME280;39674;59.860;30.672;2023-04-06T06:06:20;102559.03;;;0.11;100.00
53758;BME280;39674;59.860;30.672;2023-04-06T06:09:17;102641.44;;;0.57;100.00
53758;BME280;39674;59.860;30.672;2023-04-06T06:12:17;102644.06;;;0.58;100.00
53758;BME280;39674;59.860;30.672;2023-04-06T06:15:04;102566.88;;;0.14;100.00
53758;BME280;39674;59.860;30.672;2023-04-06T06:17:44;102567.59;;;0.07;100.00
53758;BME280;39674;59.860;30.672;2023-04-06T06:20:26;102579.88;;;0.14;100.00
53758;BME280;39674;59.860;30.672;2023-04-06T06:23:04;102581.63;;;0.14;100.00
53758;BME280;39674;59.860;30.672;2023-04-06T06:25:37;102655.41;;;0.62;100.00
53758;BME280;39674;59.860;30.672;2023-04-06T06:28:20;102626.44;;;0.43;100.00
53758;BME280;39674;59.860;30.672;2023-04-06T06:30:57;102641.34;;;0.52;100.00
53758;BME280;39674;59.860;30.672;2023-04-06T06:33:36;102653.66;;;0.61;100.00
53758;BME280;39674;59.860;30.672;2023-04-06T06:36:27;102651.91;;;0.60;100.00
53758;BME280;39674;59.860;30.672;2023-04-06T06:39:19;102644.88;;;0.56;100.00
53758;BME280;39674;59.860;30.672;2023-04-06T06:42:03;102709.78;;;0.91;100.00
53758;BME280;39674;59.860;30.672;2023-04-06T06:44:54;102563.25;;;0.06;100.00
53758;BME280;39674;59.860;30.672;2023-04-06T06:47:27;102643.22;;;0.58;100.00
53758;BME280;39674;59.860;30.672;2023-04-06T06:49:59;102585.16;;;0.18;100.00
53758;BME280;39674;59.860;30.672;2023-04-06T06:52:35;102647.69;;;0.65;100.00
53758;BME280;39674;59.860;30.672;2023-04-06T06:55:56;102560.84;;;0.15;100.00
53758;BME280;39674;59.860;30.672;2023-04-06T07:01:22;102578.34;;;0.23;100.00
53758;BME280;39674;59.860;30.672;2023-04-06T07:04:33;102633.66;;;0.57;100.00
53758;BME280;39674;59.860;30.672;2023-04-06T07:07:21;102634.50;;;0.56;100.00
53758;BME280;39674;59.860;30.672;2023-04-06T07:12:12;102577.50;;;0.24;100.00
53758;BME280;39674;59.860;30.672;2023-04-06T07:13:22;102579.16;;;0.22;100.00
53758;BME280;39674;59.860;30.672;2023-04-06T07:16:04;102683.56;;;0.82;100.00
53758;BME280;39674;59.860;30.672;2023-04-06T07:22:44;102698.00;;;1.08;100.00
53758;BME280;39674;59.860;30.672;2023-04-06T07:26:16;102575.16;;;0.36;100.00
53758;BME280;39674;59.860;30.672;2023-04-06T07:51:27;102629.84;;;0.84;100.00
53758;BME280;39674;59.860;30.672;2023-04-06T07:54:46;102612.41;;;0.79;100.00
53758;BME280;39674;59.860;30.672;2023-04-06T07:57:32;102725.44;;;1.37;100.00
53758;BME280;39674;59.860;30.672;2023-04-06T08:00:57;102595.59;;;0.60;100.00
53758;BME280;39674;59.860;30.672;2023-04-06T08:07:17;102598.31;;;0.68;100.00
53758;BME280;39674;59.860;30.672;2023-04-06T08:10:10;102602.72;;;0.72;100.00
53758;BME280;39674;59.860;30.672;2023-04-06T08:12:42;102714.28;;;1.42;100.00
53758;BME280;39674;59.860;30.672;2023-04-06T08:15:31;102690.63;;;1.32;100.00
53758;BME280;39674;59.860;30.672;2023-04-06T08:18:44;102613.59;;;0.95;100.00
53758;BME280;39674;59.860;30.672;2023-04-06T08:21:33;102627.59;;;1.02;100.00
53758;BME280;39674;59.860;30.672;2023-04-06T08:24:10;102666.25;;;1.26;100.00
53758;BME280;39674;59.860;30.672;2023-04-06T08:26:43;102668.88;;;1.30;100.00
53758;BME280;39674;59.860;30.672;2023-04-06T08:29:48;102614.59;;;1.02;100.00
53758;BME280;39674;59.860;30.672;2023-04-06T08:33:15;102679.50;;;1.40;100.00
53758;BME280;39674;59.860;30.672;2023-04-06T08:35:50;102630.22;;;1.02;100.00
53758;BME280;39674;59.860;30.672;2023-04-06T08:38:40;102703.97;;;1.49;100.00
53758;BME280;39674;59.860;30.672;2023-04-06T08:41:46;102649.63;;;1.20;100.00
53758;BME280;39674;59.860;30.672;2023-04-06T08:44:35;102603.16;;;0.94;100.00
53758;BME280;39674;59.860;30.672;2023-04-06T08:48:18;102677.72;;;1.36;100.00
53758;BME280;39674;59.860;30.672;2023-04-06T08:51:13;102707.53;;;1.54;100.00
53758;BME280;39674;59.860;30.672;2023-04-06T08:53:42;102619.91;;;1.08;100.00
53758;BME280;39674;59.860;30.672;2023-04-06T08:56:18;102746.31;;;1.86;100.00
53758;BME280;39674;59.860;30.672;2023-04-06T08:59:00;102739.19;;;1.75;100.00
53758;BME280;39674;59.860;30.672;2023-04-06T09:01:43;102663.81;;;1.37;100.00
53758;BME280;39674;59.860;30.672;2023-04-06T09:04:36;102632.19;;;1.16;100.00
53758;BME280;39674;59.860;30.672;2023-04-06T09:07:12;102750.66;;;1.87;100.00
53758;BME280;39674;59.860;30.672;2023-04-06T09:10:25;102633.25;;;1.25;100.00
53758;BME280;39674;59.860;30.672;2023-04-06T09:13:48;102633.22;;;1.24;100.00
53758;BME280;39674;59.860;30.672;2023-04-06T09:17:28;102636.03;;;1.36;100.00
53758;BME280;39674;59.860;30.672;2023-04-06T09:21:46;102643.97;;;1.44;100.00
53758;BME280;39674;59.860;30.672;2023-04-06T09:26:29;102752.94;;;2.19;100.00
53758;BME280;39674;59.860;30.672;2023-04-06T09:32:04;102634.53;;;1.51;100.00
